createdAt,value
2023-04-18T00:00:35.822Z,24.31
2023-04-18T00:01:35.849Z,24.33
2023-04-18T00:02:36.199Z,24.34
2023-04-18T00:03:36.119Z,24.31
2023-04-18T00:04:36.053Z,24.26
2023-04-18T00:05:35.982Z,24.30
2023-04-18T00:06:36.017Z,24.29
2023-04-18T00:07:36.076Z,24.33
2023-04-18T00:08:36.060Z,24.28
2023-04-18T00:09:36.101Z,24.28
2023-04-18T00:10:36.159Z,24.29
2023-04-18T00:11:36.148Z,24.33
2023-04-18T00:12:36.210Z,24.26
2023-04-18T00:13:36.184Z,24.28
2023-04-18T00:14:36.205Z,24.29
2023-04-18T00:15:36.260Z,24.25
2023-04-18T00:16:36.330Z,24.31
2023-04-18T00:17:36.343Z,24.33
2023-04-18T00:18:36.327Z,24.28
2023-04-18T00:19:36.340Z,24.26
2023-04-18T00:20:36.366Z,24.29
2023-04-18T00:21:36.398Z,24.29
2023-04-18T00:22:36.411Z,24.28
2023-04-18T00:23:36.431Z,24.30
2023-04-18T00:24:36.469Z,24.29
2023-04-18T00:25:36.518Z,24.28
2023-04-18T00:26:36.545Z,24.26
2023-04-18T00:27:36.559Z,24.26
2023-04-18T00:28:36.586Z,24.25
2023-04-18T00:29:36.611Z,24.25
2023-04-18T00:30:36.642Z,24.23
2023-04-18T00:31:36.653Z,24.26
2023-04-18T00:32:36.717Z,24.22
2023-04-18T00:33:36.747Z,24.23
2023-04-18T00:34:36.792Z,24.25
2023-04-18T00:35:36.824Z,24.22
2023-04-18T00:36:36.824Z,24.22
2023-04-18T00:37:36.846Z,24.23
2023-04-18T00:38:36.895Z,24.26
2023-04-18T00:39:36.927Z,24.25
2023-04-18T00:40:36.969Z,24.21
2023-04-18T00:41:36.966Z,24.26
2023-04-18T00:42:37.021Z,24.28
2023-04-18T00:43:37.064Z,24.22
2023-04-18T00:44:37.122Z,24.23
2023-04-18T00:45:37.120Z,24.23
2023-04-18T00:46:37.250Z,24.25
2023-04-18T00:47:37.216Z,24.23
2023-04-18T00:48:37.218Z,24.22
2023-04-18T00:49:37.265Z,24.25
2023-04-18T00:50:37.289Z,24.28
2023-04-18T00:51:37.306Z,24.20
2023-04-18T00:52:37.359Z,24.26
2023-04-18T00:53:37.408Z,24.21
2023-04-18T00:54:37.437Z,24.25
2023-04-18T00:55:37.472Z,24.23
2023-04-18T00:56:37.499Z,24.25
2023-04-18T00:57:37.555Z,24.23
2023-04-18T00:58:37.579Z,24.20
2023-04-18T00:59:37.613Z,24.22
2023-04-18T01:00:37.634Z,24.26
2023-04-18T01:01:37.714Z,24.18
2023-04-18T01:02:37.808Z,24.25
2023-04-18T01:03:37.980Z,24.23
2023-04-18T01:04:37.865Z,24.22
2023-04-18T01:05:37.844Z,24.18
2023-04-18T01:06:37.876Z,24.19
2023-04-18T01:07:37.903Z,24.20
2023-04-18T01:08:37.977Z,24.18
2023-04-18T01:09:38.018Z,24.20
2023-04-18T01:10:38.014Z,24.25
2023-04-18T01:11:38.064Z,24.21
2023-04-18T01:12:38.126Z,24.18
2023-04-18T01:13:38.159Z,24.18
2023-04-18T01:14:38.185Z,24.18
2023-04-18T01:15:38.269Z,24.19
2023-04-18T01:16:38.269Z,24.13
2023-04-18T01:17:38.295Z,24.17
2023-04-18T01:18:38.347Z,24.10
2023-04-18T01:19:38.361Z,24.15
2023-04-18T01:20:38.388Z,24.13
2023-04-18T01:21:38.414Z,24.13
2023-04-18T01:22:38.516Z,24.13
2023-04-18T01:23:38.545Z,24.15
2023-04-18T01:24:38.563Z,24.12
2023-04-18T01:25:38.581Z,24.12
2023-04-18T01:26:38.621Z,24.11
2023-04-18T01:27:38.688Z,24.13
2023-04-18T01:28:38.704Z,24.15
2023-04-18T01:29:39.053Z,24.05
2023-04-18T01:30:38.770Z,24.15
2023-04-18T01:31:39.007Z,24.12
2023-04-18T01:32:38.899Z,24.09
2023-04-18T01:33:38.880Z,24.09
2023-04-18T01:34:38.943Z,24.11
2023-04-18T01:35:38.947Z,24.12
2023-04-18T01:36:39.057Z,24.13
2023-04-18T01:37:39.005Z,24.06
2023-04-18T01:38:39.070Z,24.06
2023-04-18T01:39:39.101Z,24.06
2023-04-18T01:40:39.136Z,24.09
2023-04-18T01:41:39.187Z,24.08
2023-04-18T01:42:39.224Z,24.06
2023-04-18T01:43:39.228Z,24.06
2023-04-18T01:44:39.300Z,24.08
2023-04-18T01:45:39.302Z,24.08
2023-04-18T01:46:39.393Z,24.02
2023-04-18T01:47:39.439Z,24.02
2023-04-18T01:48:39.441Z,24.01
2023-04-18T01:49:39.483Z,24.06
2023-04-18T01:50:39.499Z,24.02
2023-04-18T01:51:39.548Z,24.01
2023-04-18T01:52:39.585Z,24.05
2023-04-18T01:53:39.635Z,23.96
2023-04-18T01:54:39.656Z,24.03
2023-04-18T01:55:39.699Z,23.99
2023-04-18T01:56:39.712Z,23.98
2023-04-18T01:57:39.744Z,24.03
2023-04-18T01:58:39.785Z,23.96
2023-04-18T01:59:39.818Z,24.02
2023-04-18T02:00:39.880Z,24.03
2023-04-18T02:01:39.899Z,23.98
2023-04-18T02:02:40.010Z,23.99
2023-04-18T02:03:40.179Z,24.01
2023-04-18T02:04:39.990Z,24.05
2023-04-18T02:05:40.036Z,24.01
2023-04-18T02:06:40.052Z,24.01
2023-04-18T02:07:40.067Z,23.98
2023-04-18T02:08:40.102Z,23.98
2023-04-18T02:09:40.151Z,23.99
2023-04-18T02:10:40.149Z,23.95
2023-04-18T02:11:40.175Z,23.98
2023-04-18T02:12:40.208Z,24.01
2023-04-18T02:13:40.235Z,23.92
2023-04-18T02:14:40.241Z,23.98
2023-04-18T02:15:40.247Z,23.89
2023-04-18T02:16:40.336Z,23.97
2023-04-18T02:17:40.334Z,23.92
2023-04-18T02:18:40.322Z,23.97
2023-04-18T02:19:40.378Z,23.97
2023-04-18T02:20:40.394Z,23.93
2023-04-18T02:21:40.435Z,23.94
2023-04-18T02:22:40.421Z,23.94
2023-04-18T02:23:40.426Z,23.90
2023-04-18T02:24:40.451Z,23.97
2023-04-18T02:25:40.498Z,23.96
2023-04-18T02:26:40.499Z,23.99
2023-04-18T02:27:40.526Z,23.93
2023-04-18T02:28:40.551Z,23.86
2023-04-18T02:29:40.551Z,23.92
2023-04-18T02:30:40.590Z,23.92
2023-04-18T02:31:40.568Z,23.86
2023-04-18T02:32:40.603Z,23.86
2023-04-18T02:33:40.586Z,23.84
2023-04-18T02:34:40.603Z,23.82
2023-04-18T02:35:40.622Z,23.81
2023-04-18T02:36:40.588Z,23.77
2023-04-18T02:37:40.602Z,23.71
2023-04-18T02:38:40.615Z,23.74
2023-04-18T02:39:40.600Z,23.74
2023-04-18T02:40:40.618Z,23.73
2023-04-18T02:41:40.634Z,23.68
2023-04-18T02:42:40.626Z,23.66
2023-04-18T02:43:40.621Z,23.65
2023-04-18T02:44:40.643Z,23.60
2023-04-18T02:45:40.669Z,23.59
2023-04-18T02:46:40.613Z,23.64
2023-04-18T02:47:53.704Z,23.56
2023-04-18T02:48:41.645Z,23.61
2023-04-18T02:49:40.598Z,23.54
2023-04-18T02:50:41.439Z,23.52
2023-04-18T02:51:40.596Z,23.51
2023-04-18T02:52:40.618Z,23.50
2023-04-18T02:53:40.583Z,23.47
2023-04-18T02:54:40.591Z,23.44
2023-04-18T02:55:40.577Z,23.43
2023-04-18T02:56:40.535Z,23.40
2023-04-18T02:57:40.533Z,23.40
2023-04-18T02:58:40.565Z,23.39
2023-04-18T02:59:40.554Z,23.40
2023-04-18T03:00:40.516Z,23.37
2023-04-18T03:01:40.574Z,23.39
2023-04-18T03:02:40.596Z,23.33
2023-04-18T03:03:40.548Z,23.33
2023-04-18T03:04:40.556Z,23.35
2023-04-18T03:05:40.512Z,23.30
2023-04-18T03:06:40.497Z,23.29
2023-04-18T03:07:40.485Z,23.29
2023-04-18T03:08:40.472Z,23.26
2023-04-18T03:09:40.466Z,23.29
2023-04-18T03:10:40.456Z,23.23
2023-04-18T03:11:40.468Z,23.27
2023-04-18T03:12:40.426Z,23.24
2023-04-18T03:13:40.419Z,23.21
2023-04-18T03:14:40.433Z,23.21
2023-04-18T03:15:40.473Z,23.21
2023-04-18T03:16:40.448Z,23.19
2023-04-18T03:17:40.428Z,23.14
2023-04-18T03:18:40.404Z,23.17
2023-04-18T03:19:40.425Z,23.17
2023-04-18T03:20:40.400Z,23.16
2023-04-18T03:21:40.388Z,23.19
2023-04-18T03:22:40.385Z,23.14
2023-04-18T03:23:40.367Z,23.08
2023-04-18T03:24:40.372Z,23.12
2023-04-18T03:25:40.365Z,23.09
2023-04-18T03:26:40.327Z,23.12
2023-04-18T03:27:40.361Z,23.07
2023-04-18T03:28:40.352Z,23.05
2023-04-18T03:29:40.345Z,23.05
2023-04-18T03:30:40.328Z,22.99
2023-04-18T03:31:40.388Z,23.06
2023-04-18T03:32:40.352Z,22.98
2023-04-18T03:33:40.334Z,22.96
2023-04-18T03:34:40.298Z,22.98
2023-04-18T03:35:40.275Z,22.98
2023-04-18T03:36:40.262Z,22.96
2023-04-18T03:37:40.306Z,22.99
2023-04-18T03:38:40.260Z,22.96
2023-04-18T03:39:40.299Z,22.98
2023-04-18T03:40:40.266Z,22.96
2023-04-18T03:41:40.257Z,22.95
2023-04-18T03:42:40.271Z,22.99
2023-04-18T03:43:40.217Z,22.98
2023-04-18T03:44:40.238Z,22.89
2023-04-18T03:45:40.238Z,22.92
2023-04-18T03:46:40.306Z,22.92
2023-04-18T03:47:40.301Z,22.89
2023-04-18T03:48:40.205Z,22.84
2023-04-18T03:49:40.189Z,22.89
2023-04-18T03:50:40.178Z,22.93
2023-04-18T03:51:40.192Z,22.91
2023-04-18T03:52:40.213Z,22.84
2023-04-18T03:53:40.183Z,22.83
2023-04-18T03:54:40.160Z,22.86
2023-04-18T03:55:40.156Z,22.84
2023-04-18T03:56:40.124Z,22.83
2023-04-18T03:57:41.290Z,22.83
2023-04-18T03:58:40.178Z,22.81
2023-04-18T03:59:40.196Z,22.83
2023-04-18T04:00:40.184Z,22.85
2023-04-18T04:01:40.197Z,22.80
2023-04-18T04:02:40.396Z,22.86
2023-04-18T04:03:40.356Z,22.78
2023-04-18T04:04:40.303Z,22.77
2023-04-18T04:05:40.265Z,22.77
2023-04-18T04:06:40.285Z,22.76
2023-04-18T04:07:40.361Z,22.80
2023-04-18T04:08:40.313Z,22.77
2023-04-18T04:09:40.340Z,22.76
2023-04-18T04:10:40.379Z,22.77
2023-04-18T04:11:40.391Z,22.68
2023-04-18T04:12:40.414Z,22.72
2023-04-18T04:13:40.423Z,22.70
2023-04-18T04:14:40.432Z,22.72
2023-04-18T04:15:40.499Z,22.74
2023-04-18T04:16:40.519Z,22.76
2023-04-18T04:17:40.566Z,22.72
2023-04-18T04:18:40.614Z,22.71
2023-04-18T04:19:40.640Z,22.73
2023-04-18T04:20:40.688Z,22.70
2023-04-18T04:21:40.692Z,22.62
2023-04-18T04:22:40.714Z,22.70
2023-04-18T04:23:40.804Z,22.67
2023-04-18T04:24:40.803Z,22.70
2023-04-18T04:25:40.869Z,22.65
2023-04-18T04:26:40.893Z,22.62
2023-04-18T04:27:40.911Z,22.67
2023-04-18T04:28:40.976Z,22.62
2023-04-18T04:29:40.995Z,22.64
2023-04-18T04:30:41.090Z,22.64
2023-04-18T04:31:41.166Z,22.62
2023-04-18T04:32:41.228Z,22.67
2023-04-18T04:33:41.246Z,22.58
2023-04-18T04:34:41.349Z,22.60
2023-04-18T04:35:41.310Z,22.61
2023-04-18T04:36:41.437Z,22.56
2023-04-18T04:37:41.452Z,22.58
2023-04-18T04:38:41.500Z,22.61
2023-04-18T04:39:41.544Z,22.58
2023-04-18T04:40:41.565Z,22.61
2023-04-18T04:41:41.623Z,22.62
2023-04-18T04:42:41.703Z,22.56
2023-04-18T04:43:41.747Z,22.56
2023-04-18T04:44:41.872Z,22.61
2023-04-18T04:45:41.836Z,22.61
2023-04-18T04:46:41.876Z,22.60
2023-04-18T04:47:41.965Z,22.56
2023-04-18T04:48:41.966Z,22.53
2023-04-18T04:49:42.072Z,22.53
2023-04-18T04:50:42.083Z,22.56
2023-04-18T04:51:42.077Z,22.53
2023-04-18T04:52:42.185Z,22.58
2023-04-18T04:53:42.186Z,22.55
2023-04-18T04:54:42.225Z,22.55
2023-04-18T04:55:42.278Z,22.56
2023-04-18T04:56:42.307Z,22.58
2023-04-18T04:57:42.380Z,22.53
2023-04-18T04:58:42.419Z,22.55
2023-04-18T04:59:42.430Z,22.53
2023-04-18T05:00:49.562Z,22.53
2023-04-18T05:01:42.516Z,22.53
2023-04-18T05:02:42.573Z,22.53
2023-04-18T05:03:42.592Z,22.58
2023-04-18T05:04:42.587Z,22.53
2023-04-18T05:05:42.423Z,22.56
2023-04-18T05:06:42.419Z,22.60
2023-04-18T05:07:42.380Z,22.55
2023-04-18T05:08:42.383Z,22.56
2023-04-18T05:09:42.361Z,22.56
2023-04-18T05:10:42.407Z,22.56
2023-04-18T05:11:42.362Z,22.62
2023-04-18T05:12:42.344Z,22.53
2023-04-18T05:13:42.364Z,22.61
2023-04-18T05:14:42.365Z,22.60
2023-04-18T05:15:42.336Z,22.60
2023-04-18T05:16:42.330Z,22.60
2023-04-18T05:17:42.399Z,22.56
2023-04-18T05:18:42.371Z,22.60
2023-04-18T05:19:42.287Z,22.61
2023-04-18T05:20:42.319Z,22.58
2023-04-18T05:21:42.303Z,22.56
2023-04-18T05:22:42.283Z,22.60
2023-04-18T05:23:42.290Z,22.56
2023-04-18T05:24:42.302Z,22.62
2023-04-18T05:25:42.285Z,22.56
2023-04-18T05:26:42.233Z,22.61
2023-04-18T05:27:42.249Z,22.59
2023-04-18T05:28:42.248Z,22.61
2023-04-18T05:29:42.308Z,22.67
2023-04-18T05:30:42.292Z,22.61
2023-04-18T05:31:42.242Z,22.64
2023-04-18T05:32:42.245Z,22.57
2023-04-18T05:33:42.533Z,22.61
2023-04-18T05:34:42.190Z,22.62
2023-04-18T05:35:42.186Z,23.24
2023-04-18T05:36:42.198Z,23.39
2023-04-18T05:37:42.207Z,23.70
2023-04-18T05:38:42.537Z,24.89
2023-04-18T05:39:42.145Z,24.50
2023-04-18T05:40:42.170Z,24.58
2023-04-18T05:41:42.223Z,26.83
2023-04-18T05:42:42.168Z,25.77
2023-04-18T05:43:44.422Z,24.92
2023-04-18T05:44:42.142Z,24.75
2023-04-18T05:45:49.153Z,25.92
2023-04-18T05:46:42.190Z,25.03
2023-04-18T05:47:42.127Z,26.01
2023-04-18T05:48:42.557Z,25.01
2023-04-18T05:49:42.087Z,24.59
2023-04-18T05:50:42.096Z,25.89
2023-04-18T05:51:42.105Z,25.32
2023-04-18T05:52:42.124Z,26.09
2023-04-18T05:53:42.550Z,26.36
2023-04-18T05:54:42.100Z,26.86
2023-04-18T05:55:42.058Z,26.34
2023-04-18T05:56:42.051Z,26.41
2023-04-18T05:57:42.022Z,26.72
2023-04-18T05:58:42.081Z,26.83
2023-04-18T05:59:42.058Z,27.25
2023-04-18T06:00:42.082Z,27.59
2023-04-18T06:01:42.041Z,28.32
2023-04-18T06:02:42.133Z,27.56
2023-04-18T06:03:42.141Z,28.21
2023-04-18T06:04:42.188Z,27.80
2023-04-18T06:05:41.995Z,28.35
2023-04-18T06:06:41.992Z,27.57
2023-04-18T06:07:42.077Z,27.79
2023-04-18T06:08:41.988Z,28.43
2023-04-18T06:09:41.952Z,28.29
2023-04-18T06:10:41.984Z,28.49
2023-04-18T06:11:41.967Z,27.71
2023-04-18T06:12:41.929Z,27.29
2023-04-18T06:13:41.970Z,27.81
2023-04-18T06:14:41.974Z,28.14
2023-04-18T06:15:41.933Z,28.06
2023-04-18T06:16:41.977Z,28.29
2023-04-18T06:17:41.935Z,28.15
2023-04-18T06:18:42.081Z,28.14
2023-04-18T06:19:41.919Z,28.81
2023-04-18T06:20:41.970Z,28.59
2023-04-18T06:21:41.997Z,28.51
2023-04-18T06:22:41.946Z,28.26
2023-04-18T06:23:41.986Z,28.43
2023-04-18T06:24:41.999Z,28.96
2023-04-18T06:25:42.132Z,29.69
2023-04-18T06:26:42.042Z,29.27
2023-04-18T06:27:42.064Z,28.84
2023-04-18T06:28:42.099Z,29.21
2023-04-18T06:29:42.138Z,29.61
2023-04-18T06:30:42.196Z,28.96
2023-04-18T06:31:42.402Z,29.65
2023-04-18T06:32:42.260Z,28.70
2023-04-18T06:33:42.288Z,29.21
2023-04-18T06:34:42.206Z,29.16
2023-04-18T06:35:42.217Z,29.44
2023-04-18T06:36:42.207Z,29.10
2023-04-18T06:37:42.233Z,28.72
2023-04-18T06:38:42.560Z,27.47
2023-04-18T06:39:42.314Z,26.80
2023-04-18T06:40:42.318Z,27.50
2023-04-18T06:41:42.325Z,26.57
2023-04-18T06:42:42.398Z,26.35
2023-04-18T06:43:52.079Z,25.36
2023-04-18T06:44:43.461Z,26.34
2023-04-18T06:45:42.469Z,25.89
2023-04-18T06:46:42.416Z,25.88
2023-04-18T06:47:42.414Z,25.53
2023-04-18T06:48:42.411Z,25.52
2023-04-18T06:49:42.369Z,26.03
2023-04-18T06:50:42.393Z,25.01
2023-04-18T06:51:42.396Z,25.26
2023-04-18T06:52:42.400Z,24.80
2023-04-18T06:53:42.371Z,25.00
2023-04-18T06:54:42.470Z,25.06
2023-04-18T06:55:42.541Z,24.89
2023-04-18T06:56:42.504Z,24.49
2023-04-18T06:57:42.511Z,24.91
2023-04-18T06:58:42.578Z,24.44
2023-04-18T06:59:42.588Z,24.49
2023-04-18T07:00:42.629Z,24.34
2023-04-18T07:01:42.580Z,25.79
2023-04-18T07:02:42.659Z,25.73
2023-04-18T07:03:42.613Z,25.63
2023-04-18T07:04:42.676Z,25.62
2023-04-18T07:05:42.544Z,25.57
2023-04-18T07:06:42.579Z,25.77
2023-04-18T07:07:42.545Z,27.00
2023-04-18T07:08:42.601Z,25.69
2023-04-18T07:09:42.601Z,26.09
2023-04-18T07:10:42.574Z,25.58
2023-04-18T07:11:42.670Z,25.88
2023-04-18T07:12:42.648Z,25.71
2023-04-18T07:13:42.723Z,25.23
2023-04-18T07:14:43.065Z,25.26
2023-04-18T07:15:42.770Z,26.06
2023-04-18T07:16:42.841Z,25.65
2023-04-18T07:17:42.934Z,25.58
2023-04-18T07:18:42.930Z,25.83
2023-04-18T07:19:42.995Z,26.91
2023-04-18T07:20:43.081Z,26.29
2023-04-18T07:21:43.151Z,26.90
2023-04-18T07:22:43.215Z,25.72
2023-04-18T07:23:43.267Z,25.61
2023-04-18T07:24:43.338Z,25.31
2023-04-18T07:25:43.390Z,25.65
2023-04-18T07:26:43.481Z,26.12
2023-04-18T07:27:43.584Z,25.69
2023-04-18T07:28:43.618Z,25.30
2023-04-18T07:29:44.117Z,26.90
2023-04-18T07:30:43.759Z,25.34
2023-04-18T07:31:43.783Z,25.81
2023-04-18T07:32:43.863Z,25.64
2023-04-18T07:33:43.916Z,25.74
2023-04-18T07:34:43.929Z,25.67
2023-04-18T07:35:43.941Z,26.08
2023-04-18T07:36:43.921Z,26.28
2023-04-18T07:37:44.019Z,26.03
2023-04-18T07:38:44.040Z,25.40
2023-04-18T07:39:44.096Z,25.26
2023-04-18T07:40:44.084Z,25.41
2023-04-18T07:41:44.096Z,26.30
2023-04-18T07:42:44.076Z,26.22
2023-04-18T07:43:44.142Z,26.45
2023-04-18T07:44:44.074Z,26.40
2023-04-18T07:45:44.091Z,26.17
2023-04-18T07:46:44.135Z,26.27
2023-04-18T07:47:44.169Z,25.79
2023-04-18T07:48:44.131Z,25.75
2023-04-18T07:49:44.096Z,25.88
2023-04-18T07:50:44.103Z,26.29
2023-04-18T07:51:44.114Z,26.96
2023-04-18T07:52:44.175Z,26.65
2023-04-18T07:53:44.234Z,26.72
2023-04-18T07:54:44.300Z,26.84
2023-04-18T07:55:44.365Z,27.23
2023-04-18T07:56:44.386Z,27.17
2023-04-18T07:57:45.859Z,27.64
2023-04-18T07:58:44.498Z,28.23
2023-04-18T07:59:44.647Z,27.75
2023-04-18T08:00:44.609Z,28.02
2023-04-18T08:01:44.662Z,27.28
2023-04-18T08:02:44.713Z,27.37
2023-04-18T08:03:44.816Z,27.36
2023-04-18T08:04:44.893Z,27.29
2023-04-18T08:05:44.780Z,27.35
2023-04-18T08:06:44.776Z,27.60
2023-04-18T08:07:44.867Z,27.96
2023-04-18T08:08:44.912Z,27.94
2023-04-18T08:09:44.894Z,28.11
2023-04-18T08:10:44.869Z,28.18
2023-04-18T08:11:44.933Z,28.40
2023-04-18T08:12:44.912Z,28.64
2023-04-18T08:13:44.955Z,28.72
2023-04-18T08:14:44.987Z,28.63
2023-04-18T08:15:45.119Z,28.47
2023-04-18T08:16:44.955Z,28.88
2023-04-18T08:17:45.064Z,29.00
2023-04-18T08:18:44.981Z,30.34
2023-04-18T08:19:44.950Z,29.80
2023-04-18T08:20:45.033Z,29.60
2023-04-18T08:21:44.997Z,29.01
2023-04-18T08:23:01.973Z,30.09
2023-04-18T08:23:45.974Z,29.29
2023-04-18T08:24:57.456Z,28.94
2023-04-18T08:25:45.980Z,28.78
2023-04-18T08:26:44.972Z,28.72
2023-04-18T08:27:44.950Z,28.58
2023-04-18T08:28:46.585Z,28.47
2023-04-18T08:29:45.090Z,28.56
2023-04-18T08:30:44.921Z,27.93
2023-04-18T08:31:45.038Z,26.46
2023-04-18T08:32:44.956Z,26.89
2023-04-18T08:33:44.952Z,26.27
2023-04-18T08:34:45.129Z,26.17
2023-04-18T08:35:44.893Z,25.52
2023-04-18T08:36:45.658Z,25.27
2023-04-18T08:37:44.881Z,24.81
2023-04-18T08:38:44.862Z,24.65
2023-04-18T08:39:44.866Z,24.65
2023-04-18T08:40:44.854Z,24.59
2023-04-18T08:41:44.829Z,24.44
2023-04-18T08:42:44.834Z,24.35
2023-04-18T08:43:44.818Z,24.28
2023-04-18T08:44:44.839Z,24.17
2023-04-18T08:45:44.988Z,24.23
2023-04-18T08:46:45.008Z,24.40
2023-04-18T08:47:45.108Z,24.24
2023-04-18T08:48:45.076Z,24.29
2023-04-18T08:49:45.148Z,24.34
2023-04-18T08:50:45.098Z,24.91
2023-04-18T08:51:45.068Z,25.61
2023-04-18T08:52:45.042Z,26.99
2023-04-18T08:53:45.097Z,26.59
2023-04-18T08:54:45.084Z,27.15
2023-04-18T08:55:45.108Z,28.29
2023-04-18T08:56:45.119Z,26.47
2023-04-18T08:57:45.142Z,27.12
2023-04-18T08:58:45.225Z,27.64
2023-04-18T08:59:47.114Z,27.97
2023-04-18T09:00:45.129Z,27.59
2023-04-18T09:01:45.197Z,27.73
2023-04-18T09:02:45.349Z,27.38
2023-04-18T09:03:45.313Z,27.24
2023-04-18T09:04:45.145Z,27.04
2023-04-18T09:05:45.116Z,26.77
2023-04-18T09:06:45.101Z,26.41
2023-04-18T09:07:45.114Z,26.30
2023-04-18T09:08:45.102Z,27.09
2023-04-18T09:09:45.128Z,26.84
2023-04-18T09:10:46.755Z,26.96
2023-04-18T09:11:45.044Z,26.57
2023-04-18T09:12:45.048Z,26.28
2023-04-18T09:13:45.084Z,26.70
2023-04-18T09:14:45.076Z,27.59
2023-04-18T09:15:45.068Z,27.07
2023-04-18T09:16:45.078Z,26.78
2023-04-18T09:17:45.090Z,27.02
2023-04-18T09:18:45.018Z,25.84
2023-04-18T09:19:45.392Z,25.94
2023-04-18T09:20:44.998Z,26.20
2023-04-18T09:21:45.009Z,26.78
2023-04-18T09:22:45.032Z,26.68
2023-04-18T09:23:45.011Z,26.00
2023-04-18T09:24:45.191Z,26.24
2023-04-18T09:25:45.410Z,26.94
2023-04-18T09:26:44.987Z,25.74
2023-04-18T09:27:44.963Z,25.42
2023-04-18T09:28:45.020Z,25.63
2023-04-18T09:29:44.993Z,25.47
2023-04-18T09:30:45.049Z,25.66
2023-04-18T09:31:45.016Z,25.52
2023-04-18T09:32:45.079Z,25.23
2023-04-18T09:33:45.017Z,25.16
2023-04-18T09:34:45.071Z,25.33
2023-04-18T09:35:45.026Z,25.14
2023-04-18T09:36:45.112Z,25.29
2023-04-18T09:37:45.052Z,25.31
2023-04-18T09:38:45.012Z,24.91
2023-04-18T09:39:45.108Z,24.99
2023-04-18T09:40:45.140Z,25.28
2023-04-18T09:41:46.907Z,24.57
2023-04-18T09:42:45.292Z,24.65
2023-04-18T09:43:45.050Z,25.07
2023-04-18T09:44:45.101Z,25.75
2023-04-18T09:45:45.171Z,26.50
2023-04-18T09:46:47.154Z,26.97
2023-04-18T09:47:45.320Z,26.98
2023-04-18T09:48:45.300Z,27.42
2023-04-18T09:49:45.290Z,27.37
2023-04-18T09:50:45.680Z,27.20
2023-04-18T09:51:45.300Z,26.48
2023-04-18T09:52:45.378Z,26.72
2023-04-18T09:53:45.364Z,27.08
2023-04-18T09:54:47.115Z,26.82
2023-04-18T09:55:45.352Z,27.35
2023-04-18T09:56:45.359Z,26.56
2023-04-18T09:57:45.328Z,26.36
2023-04-18T09:58:45.323Z,25.95
2023-04-18T09:59:45.341Z,25.80
2023-04-18T10:00:46.925Z,26.35
2023-04-18T10:01:45.350Z,26.08
2023-04-18T10:02:45.377Z,26.13
2023-04-18T10:03:45.361Z,25.97
2023-04-18T10:04:45.357Z,25.79
2023-04-18T10:05:45.338Z,25.73
2023-04-18T10:06:45.272Z,26.02
2023-04-18T10:07:45.244Z,25.43
2023-04-18T10:08:45.296Z,25.55
2023-04-18T10:09:45.235Z,25.64
2023-04-18T10:10:45.286Z,25.72
2023-04-18T10:11:45.245Z,26.35
2023-04-18T10:12:45.209Z,25.66
2023-04-18T10:13:45.231Z,25.68
2023-04-18T10:14:45.296Z,26.05
2023-04-18T10:15:45.733Z,26.07
2023-04-18T10:16:45.441Z,25.82
2023-04-18T10:17:56.201Z,26.49
2023-04-18T10:18:46.506Z,26.07
2023-04-18T10:19:45.495Z,25.61
2023-04-18T10:20:45.650Z,24.92
2023-04-18T10:21:45.446Z,25.73
2023-04-18T10:22:45.452Z,26.12
2023-04-18T10:23:45.601Z,25.87
2023-04-18T10:24:45.424Z,26.28
2023-04-18T10:25:45.459Z,25.98
2023-04-18T10:26:45.431Z,27.25
2023-04-18T10:27:45.462Z,26.48
2023-04-18T10:28:46.015Z,26.35
2023-04-18T10:29:45.608Z,26.20
2023-04-18T10:30:46.175Z,26.22
2023-04-18T10:31:45.764Z,25.99
2023-04-18T10:32:45.788Z,25.69
2023-04-18T10:33:52.808Z,25.88
2023-04-18T10:34:46.813Z,25.86
2023-04-18T10:35:46.166Z,26.53
2023-04-18T10:36:45.815Z,25.91
2023-04-18T10:37:45.774Z,26.45
2023-04-18T10:38:45.827Z,26.86
2023-04-18T10:39:45.867Z,26.76
2023-04-18T10:40:46.200Z,27.09
2023-04-18T10:41:45.859Z,26.88
2023-04-18T10:42:45.753Z,25.56
2023-04-18T10:43:45.749Z,25.44
2023-04-18T10:44:45.782Z,24.99
2023-04-18T10:45:45.923Z,24.82
2023-04-18T10:46:45.936Z,25.33
2023-04-18T10:47:46.060Z,24.99
2023-04-18T10:48:46.089Z,24.59
2023-04-18T10:49:46.027Z,24.92
2023-04-18T10:50:46.067Z,24.22
2023-04-18T10:51:46.195Z,24.00
2023-04-18T10:52:46.081Z,24.14
2023-04-18T10:53:46.093Z,24.10
2023-04-18T10:54:46.106Z,24.06
2023-04-18T10:55:46.112Z,24.50
2023-04-18T10:56:46.179Z,24.57
2023-04-18T10:57:46.112Z,23.94
2023-04-18T10:58:46.114Z,23.93
2023-04-18T10:59:46.143Z,24.21
2023-04-18T11:00:46.162Z,24.07
2023-04-18T11:01:46.139Z,24.02
2023-04-18T11:02:46.242Z,23.92
2023-04-18T11:03:46.186Z,23.70
2023-04-18T11:04:46.109Z,23.63
2023-04-18T11:05:46.094Z,23.61
2023-04-18T11:06:46.172Z,23.37
2023-04-18T11:07:46.142Z,23.80
2023-04-18T11:08:46.678Z,23.59
2023-04-18T11:09:46.193Z,23.78
2023-04-18T11:10:46.167Z,23.77
2023-04-18T11:11:46.250Z,24.21
2023-04-18T11:12:46.214Z,23.77
2023-04-18T11:13:46.253Z,23.61
2023-04-18T11:14:46.296Z,23.64
2023-04-18T11:15:46.287Z,23.26
2023-04-18T11:16:46.318Z,24.73
2023-04-18T11:17:46.391Z,23.26
2023-04-18T11:18:46.357Z,23.69
2023-04-18T11:19:46.372Z,24.02
2023-04-18T11:20:46.378Z,24.59
2023-04-18T11:21:46.689Z,25.08
2023-04-18T11:22:46.383Z,25.11
2023-04-18T11:23:46.396Z,25.09
2023-04-18T11:24:46.356Z,25.74
2023-04-18T11:25:46.401Z,25.47
2023-04-18T11:26:46.450Z,25.76
2023-04-18T11:27:46.519Z,26.29
2023-04-18T11:28:46.572Z,26.45
2023-04-18T11:29:47.679Z,26.00
2023-04-18T11:30:46.666Z,26.17
2023-04-18T11:31:47.280Z,26.03
2023-04-18T11:32:46.795Z,25.88
2023-04-18T11:33:46.770Z,25.70
2023-04-18T11:34:47.178Z,25.63
2023-04-18T11:35:46.872Z,25.64
2023-04-18T11:36:47.169Z,25.62
2023-04-18T11:37:46.891Z,25.54
2023-04-18T11:38:46.941Z,25.43
2023-04-18T11:39:47.231Z,25.40
2023-04-18T11:40:47.021Z,25.42
2023-04-18T11:41:47.188Z,25.49
2023-04-18T11:42:47.125Z,25.13
2023-04-18T11:43:47.186Z,25.14
2023-04-18T11:44:47.254Z,25.08
2023-04-18T11:45:47.294Z,25.15
2023-04-18T11:46:47.672Z,25.23
2023-04-18T11:47:47.412Z,25.26
2023-04-18T11:48:47.453Z,25.17
2023-04-18T11:49:47.529Z,25.25
2023-04-18T11:50:47.605Z,25.20
2023-04-18T11:51:47.594Z,25.09
2023-04-18T11:52:47.729Z,25.12
2023-04-18T11:53:47.721Z,25.03
2023-04-18T11:54:47.832Z,24.97
2023-04-18T11:55:47.860Z,24.79
2023-04-18T11:56:47.946Z,24.84
2023-04-18T11:57:48.006Z,24.91
2023-04-18T11:58:48.018Z,24.88
2023-04-18T11:59:48.145Z,24.91
2023-04-18T12:00:48.132Z,24.88
2023-04-18T12:01:48.351Z,24.85
2023-04-18T12:02:48.338Z,24.78
2023-04-18T12:03:48.549Z,24.91
2023-04-18T12:04:48.562Z,24.75
2023-04-18T12:05:48.732Z,24.84
2023-04-18T12:06:48.540Z,24.77
2023-04-18T12:07:48.563Z,24.55
2023-04-18T12:08:48.655Z,24.58
2023-04-18T12:09:48.670Z,24.35
2023-04-18T12:10:48.764Z,24.18
2023-04-18T12:11:48.811Z,24.30
2023-04-18T12:12:48.817Z,24.30
2023-04-18T12:13:48.894Z,24.34
2023-04-18T12:14:48.984Z,24.25
2023-04-18T12:15:49.103Z,24.15
2023-04-18T12:16:49.081Z,24.24
2023-04-18T12:17:49.158Z,24.18
2023-04-18T12:18:49.174Z,24.12
2023-04-18T12:19:49.876Z,24.12
2023-04-18T12:20:49.280Z,24.08
2023-04-18T12:21:49.352Z,24.00
2023-04-18T12:22:49.429Z,24.07
2023-04-18T12:23:49.466Z,24.04
2023-04-18T12:24:49.493Z,23.95
2023-04-18T12:25:49.550Z,24.01
2023-04-18T12:26:49.590Z,23.99
2023-04-18T12:27:49.675Z,23.95
2023-04-18T12:28:49.658Z,23.96
2023-04-18T12:29:49.682Z,23.77
2023-04-18T12:30:49.752Z,23.72
2023-04-18T12:31:49.798Z,23.81
2023-04-18T12:32:49.892Z,23.75
2023-04-18T12:33:49.863Z,23.76
2023-04-18T12:34:49.950Z,23.89
2023-04-18T12:35:49.950Z,23.87
2023-04-18T12:36:50.006Z,23.86
2023-04-18T12:37:50.008Z,23.68
2023-04-18T12:38:50.050Z,23.68
2023-04-18T12:39:50.078Z,23.72
2023-04-18T12:40:50.118Z,23.60
2023-04-18T12:41:50.138Z,23.66
2023-04-18T12:42:50.145Z,23.69
2023-04-18T12:43:50.168Z,23.62
2023-04-18T12:44:50.146Z,23.63
2023-04-18T12:45:50.302Z,23.54
2023-04-18T12:46:50.248Z,23.46
2023-04-18T12:47:50.253Z,23.49
2023-04-18T12:48:50.213Z,23.36
2023-04-18T12:49:50.257Z,23.39
2023-04-18T12:50:50.296Z,23.47
2023-04-18T12:51:50.680Z,23.93
2023-04-18T12:52:50.280Z,23.41